createdAt,value
2019-05-02T00:00:13.843Z,7.77
2019-05-02T00:02:45.118Z,7.87
2019-05-02T00:05:19.329Z,7.72
2019-05-02T00:07:53.890Z,7.66
2019-05-02T00:10:26.067Z,7.74
2019-05-02T00:12:57.977Z,7.79
2019-05-02T00:15:33.187Z,7.88
2019-05-02T00:18:04.593Z,8.02
2019-05-02T00:20:35.841Z,7.91
2019-05-02T00:23:09.243Z,8.07
2019-05-02T00:25:47.246Z,8.07
2019-05-02T00:28:19.809Z,8.13
2019-05-02T00:30:50.970Z,8.11
2019-05-02T00:33:22.483Z,8.13
2019-05-02T00:35:53.959Z,8.12
2019-05-02T00:38:27.933Z,8.27
2019-05-02T00:41:02.170Z,8.40
2019-05-02T00:43:34.581Z,8.37
2019-05-02T00:46:06.445Z,8.33
2019-05-02T00:48:44.189Z,8.35
2019-05-02T00:51:15.655Z,8.61
2019-05-02T00:53:48.434Z,8.73
2019-05-02T00:56:21.892Z,8.48
2019-05-02T00:58:56.617Z,8.56
2019-05-02T01:01:48.437Z,8.56
2019-05-02T01:04:28.831Z,8.52
2019-05-02T01:07:00.454Z,8.51
2019-05-02T01:09:32.540Z,8.70
2019-05-02T01:12:08.411Z,8.73
2019-05-02T01:14:37.786Z,8.63
2019-05-02T01:17:09.422Z,8.87
2019-05-02T01:19:42.429Z,8.73
2019-05-02T01:22:16.008Z,8.60
2019-05-02T01:24:46.672Z,8.47
2019-05-02T01:27:53.022Z,8.42
2019-05-02T01:30:43.894Z,8.49
2019-05-02T01:33:52.421Z,8.56
2019-05-02T01:36:30.233Z,8.48
2019-05-02T01:39:02.845Z,8.63
2019-05-02T01:41:36.002Z,8.56
2019-05-02T01:44:09.719Z,8.52
2019-05-02T01:46:41.867Z,8.48
2019-05-02T01:49:16.835Z,8.45
2019-05-02T01:51:51.546Z,8.61
2019-05-02T01:54:22.779Z,8.37
2019-05-02T01:56:54.339Z,8.45
2019-05-02T01:59:29.081Z,8.33
2019-05-02T02:02:00.753Z,8.25
2019-05-02T02:04:31.940Z,8.34
2019-05-02T02:07:03.667Z,8.40
2019-05-02T02:09:38.798Z,8.35
2019-05-02T02:12:11.463Z,8.39
2019-05-02T02:14:48.039Z,8.52
2019-05-02T02:17:17.417Z,8.39
2019-05-02T02:19:53.392Z,8.33
2019-05-02T02:22:42.351Z,8.48
2019-05-02T02:25:52.071Z,8.37
2019-05-02T02:28:23.124Z,8.29
2019-05-02T02:30:57.842Z,8.28
2019-05-02T02:33:27.675Z,8.20
2019-05-02T02:36:00.138Z,8.38
2019-05-02T02:38:33.789Z,8.24
2019-05-02T02:41:12.513Z,8.29
2019-05-02T02:43:41.941Z,8.40
2019-05-02T02:46:37.709Z,8.34
2019-05-02T02:49:06.365Z,8.34
2019-05-02T02:51:37.902Z,8.41
2019-05-02T02:54:08.978Z,8.31
2019-05-02T02:56:40.956Z,8.51
2019-05-02T02:59:19.329Z,8.35
2019-05-02T03:01:47.459Z,8.29
2019-05-02T03:04:20.170Z,8.42
2019-05-02T03:06:51.947Z,8.28
2019-05-02T03:09:26.494Z,8.40
2019-05-02T03:12:13.759Z,8.40
2019-05-02T03:14:50.662Z,8.31
2019-05-02T03:17:49.295Z,8.38
2019-05-02T03:20:20.523Z,8.44
2019-05-02T03:22:51.952Z,8.35
2019-05-02T03:25:27.027Z,8.29
2019-05-02T03:27:57.120Z,8.45
2019-05-02T03:30:36.036Z,8.31
2019-05-02T03:33:10.279Z,8.23
2019-05-02T03:35:42.784Z,8.24
2019-05-02T03:38:08.246Z,8.31
2019-05-02T03:40:41.369Z,8.40
2019-05-02T03:43:18.935Z,8.44
2019-05-02T03:45:46.474Z,8.37
2019-05-02T03:48:25.856Z,8.28
2019-05-02T03:50:51.456Z,8.54
2019-05-02T03:53:25.376Z,8.41
2019-05-02T03:55:56.639Z,8.58
2019-05-02T03:58:28.798Z,8.44
2019-05-02T04:01:03.357Z,8.29
2019-05-02T04:03:40.881Z,8.20
2019-05-02T04:06:14.072Z,8.35
2019-05-02T04:08:43.571Z,8.40
2019-05-02T04:11:26.552Z,8.40
2019-05-02T04:13:59.712Z,8.44
2019-05-02T04:16:31.910Z,8.55
2019-05-02T04:19:05.446Z,8.46
2019-05-02T04:21:41.496Z,8.50
2019-05-02T04:24:15.880Z,8.46
2019-05-02T04:26:56.080Z,8.63
2019-05-02T04:29:24.437Z,8.53
2019-05-02T04:31:54.885Z,8.44
2019-05-02T04:34:26.006Z,8.47
2019-05-02T04:37:01.272Z,8.52
2019-05-02T04:39:31.170Z,8.50
2019-05-02T04:42:12.929Z,8.43
2019-05-02T04:45:26.346Z,8.57
2019-05-02T04:47:58.991Z,8.65
2019-05-02T04:50:29.454Z,8.49
2019-05-02T04:53:00.276Z,8.76
2019-05-02T04:55:33.461Z,8.58
2019-05-02T04:58:08.154Z,8.67
2019-05-02T05:00:44.970Z,8.59
2019-05-02T05:03:15.478Z,8.72
2019-05-02T05:05:48.221Z,8.82
2019-05-02T05:08:26.187Z,8.63
2019-05-02T05:10:53.718Z,8.65
2019-05-02T05:13:26.459Z,8.64
2019-05-02T05:16:02.896Z,8.80
2019-05-02T05:18:33.616Z,8.68
2019-05-02T05:21:04.667Z,8.65
2019-05-02T05:23:59.510Z,8.78
2019-05-02T05:26:28.110Z,8.84
2019-05-02T05:29:00.391Z,8.74
2019-05-02T05:31:31.537Z,8.79
2019-05-02T05:34:02.993Z,8.69
2019-05-02T05:36:37.466Z,8.84
2019-05-02T05:39:11.655Z,8.76
2019-05-02T05:41:42.650Z,8.78
2019-05-02T05:44:18.236Z,8.96
2019-05-02T05:46:49.626Z,8.95
2019-05-02T05:49:21.887Z,9.03
2019-05-02T05:51:54.313Z,9.10
2019-05-02T05:54:28.303Z,8.99
2019-05-02T05:57:01.819Z,9.23
2019-05-02T05:59:33.330Z,9.29
2019-05-02T06:02:05.615Z,9.24
2019-05-02T06:04:38.873Z,9.24
2019-05-02T06:07:10.112Z,9.33
2019-05-02T06:09:41.569Z,9.31
2019-05-02T06:12:12.713Z,9.39
2019-05-02T06:14:46.424Z,9.29
2019-05-02T06:17:23.016Z,9.17
2019-05-02T06:19:53.595Z,9.43
2019-05-02T06:22:25.688Z,9.35
2019-05-02T06:24:58.392Z,9.42
2019-05-02T06:27:30.495Z,9.45
2019-05-02T06:30:01.798Z,9.65
2019-05-02T06:32:33.658Z,9.64
2019-05-02T06:35:04.994Z,9.61
2019-05-02T06:37:40.473Z,9.57
2019-05-02T06:40:13.044Z,9.56
2019-05-02T06:42:46.099Z,9.81
2019-05-02T06:45:19.062Z,9.73
2019-05-02T06:47:50.776Z,9.89
2019-05-02T06:50:24.969Z,9.79
2019-05-02T06:52:58.083Z,9.75
2019-05-02T06:55:36.279Z,9.94
2019-05-02T06:58:08.229Z,10.03
2019-05-02T07:00:55.902Z,10.14
2019-05-02T07:03:12.603Z,9.94
2019-05-02T07:05:43.947Z,10.14
2019-05-02T07:08:15.139Z,10.05
2019-05-02T07:10:48.094Z,10.15
2019-05-02T07:13:19.142Z,10.18
2019-05-02T07:16:00.655Z,10.22
2019-05-02T07:18:35.761Z,10.50
2019-05-02T07:21:07.450Z,10.45
2019-05-02T07:23:39.698Z,10.30
2019-05-02T07:26:15.530Z,10.21
2019-05-02T07:28:47.187Z,10.23
2019-05-02T07:31:18.257Z,10.18
2019-05-02T07:33:51.240Z,10.30
2019-05-02T07:36:22.821Z,10.38
2019-05-02T07:38:57.587Z,10.47
2019-05-02T07:41:28.952Z,10.15
2019-05-02T07:44:00.640Z,10.16
2019-05-02T07:46:32.196Z,10.46
2019-05-02T07:49:03.340Z,10.51
2019-05-02T07:51:34.454Z,10.43
2019-05-02T07:54:07.479Z,10.55
2019-05-02T07:56:38.545Z,10.58
2019-05-02T07:59:11.206Z,10.55
2019-05-02T08:01:44.832Z,10.63
2019-05-02T08:04:15.446Z,10.64
2019-05-02T08:06:46.690Z,10.61
2019-05-02T08:09:17.821Z,10.59
2019-05-02T08:11:49.242Z,10.60
2019-05-02T08:14:22.319Z,10.53
2019-05-02T08:17:05.516Z,10.72
2019-05-02T08:19:28.986Z,10.58
2019-05-02T08:22:04.735Z,10.77
2019-05-02T08:24:37.914Z,10.65
2019-05-02T08:27:34.661Z,10.50
2019-05-02T08:30:09.351Z,10.68
2019-05-02T08:32:40.804Z,10.72
2019-05-02T08:35:12.575Z,10.54
2019-05-02T08:37:43.790Z,10.60
2019-05-02T08:40:15.145Z,10.76
2019-05-02T08:42:47.704Z,10.61
2019-05-02T08:45:20.612Z,10.67
2019-05-02T08:47:51.781Z,10.70
2019-05-02T08:50:27.187Z,10.92
2019-05-02T08:52:56.668Z,10.78
2019-05-02T08:55:30.042Z,10.71
2019-05-02T08:58:06.095Z,10.76
2019-05-02T09:00:37.621Z,10.97
2019-05-02T09:05:45.341Z,11.00
2019-05-02T09:08:16.718Z,10.81
2019-05-02T09:10:47.759Z,11.14
2019-05-02T09:13:26.485Z,11.01
2019-05-02T09:15:54.158Z,11.21
2019-05-02T09:18:35.017Z,11.18
2019-05-02T09:21:02.067Z,11.22
2019-05-02T09:23:37.198Z,11.14
2019-05-02T09:26:09.058Z,11.40
2019-05-02T09:28:42.074Z,11.23
2019-05-02T09:31:15.208Z,11.18
2019-05-02T09:33:48.187Z,11.09
2019-05-02T09:36:19.842Z,11.09
2019-05-02T09:38:55.904Z,11.13
2019-05-02T09:41:27.033Z,11.10
2019-05-02T09:43:56.905Z,11.18
2019-05-02T09:46:29.855Z,11.43
2019-05-02T09:49:04.319Z,11.18
2019-05-02T09:51:35.525Z,11.40
2019-05-02T09:54:06.990Z,11.21
2019-05-02T09:56:39.595Z,11.42
2019-05-02T09:59:26.836Z,11.53
2019-05-02T10:01:48.204Z,11.67
2019-05-02T10:04:19.448Z,11.76
2019-05-02T10:06:52.542Z,11.69
2019-05-02T10:09:27.081Z,11.91
2019-05-02T10:11:58.021Z,11.67
2019-05-02T10:14:30.297Z,11.86
2019-05-02T10:17:06.998Z,11.63
2019-05-02T10:19:35.349Z,11.85
2019-05-02T10:22:06.994Z,11.98
2019-05-02T10:24:38.463Z,11.97
2019-05-02T10:27:09.811Z,12.07
2019-05-02T10:29:42.484Z,12.16
2019-05-02T10:32:16.644Z,12.22
2019-05-02T10:34:53.101Z,12.30
2019-05-02T10:37:22.330Z,12.30
2019-05-02T10:39:55.818Z,12.26
2019-05-02T10:42:27.534Z,12.20
2019-05-02T10:45:24.061Z,12.27
2019-05-02T10:47:55.216Z,12.53
2019-05-02T10:50:36.084Z,12.57
2019-05-02T10:53:14.313Z,12.78
2019-05-02T10:55:42.092Z,13.02
2019-05-02T10:58:13.778Z,12.97
2019-05-02T11:00:45.576Z,12.77
2019-05-02T11:03:38.137Z,12.80
2019-05-02T11:06:10.182Z,12.60
2019-05-02T11:08:45.712Z,12.44
2019-05-02T11:11:14.020Z,12.62
2019-05-02T11:14:07.076Z,12.78
2019-05-02T11:16:59.074Z,12.54
2019-05-02T11:19:56.641Z,12.69
2019-05-02T11:22:27.749Z,12.80
2019-05-02T11:24:59.260Z,12.86
2019-05-02T11:27:32.860Z,13.04
2019-05-02T11:30:06.135Z,13.13
2019-05-02T11:32:39.122Z,13.18
2019-05-02T11:35:12.318Z,13.09
2019-05-02T11:37:43.465Z,13.11
2019-05-02T11:40:15.421Z,13.31
2019-05-02T11:42:47.956Z,13.32
2019-05-02T11:45:19.105Z,13.37
2019-05-02T11:47:50.305Z,13.51
2019-05-02T11:50:26.614Z,13.70
2019-05-02T11:52:57.745Z,13.74
2019-05-02T11:55:29.187Z,13.90
2019-05-02T11:58:07.895Z,13.96
2019-05-02T12:00:34.945Z,14.00
2019-05-02T12:03:28.121Z,14.11
2019-05-02T12:06:01.994Z,14.38
2019-05-02T12:08:33.662Z,14.70
2019-05-02T12:11:08.432Z,14.99
2019-05-02T12:13:38.973Z,15.55
2019-05-02T12:16:12.600Z,15.41
2019-05-02T12:18:44.086Z,15.72
2019-05-02T12:21:15.763Z,16.02
2019-05-02T12:23:46.971Z,16.44
2019-05-02T12:26:18.162Z,16.77
2019-05-02T12:28:52.476Z,16.85
2019-05-02T12:31:32.449Z,16.61
2019-05-02T12:34:07.547Z,16.62
2019-05-02T12:36:42.735Z,16.74
2019-05-02T12:39:15.708Z,16.89
2019-05-02T12:41:47.191Z,16.97
2019-05-02T12:44:18.753Z,17.15
2019-05-02T12:46:51.918Z,17.50
2019-05-02T12:49:27.722Z,17.45
2019-05-02T12:51:55.988Z,17.19
2019-05-02T12:54:27.164Z,17.17
2019-05-02T12:56:58.925Z,17.39
2019-05-02T12:59:32.092Z,17.37
2019-05-02T13:02:05.729Z,17.17
2019-05-02T13:04:36.806Z,17.02
2019-05-02T13:07:10.192Z,16.84
2019-05-02T13:09:42.040Z,16.69
2019-05-02T13:12:17.785Z,16.50
2019-05-02T13:14:49.136Z,16.54
2019-05-02T13:17:22.522Z,16.55
2019-05-02T13:19:57.042Z,16.33
2019-05-02T13:22:52.635Z,16.17
2019-05-02T13:25:27.245Z,15.61
2019-05-02T13:28:01.948Z,15.61
2019-05-02T13:30:46.475Z,15.75
2019-05-02T13:33:27.232Z,15.63
2019-05-02T13:35:59.712Z,15.25
2019-05-02T13:38:32.904Z,15.24
2019-05-02T13:41:07.120Z,15.16
2019-05-02T13:43:45.436Z,15.37
2019-05-02T13:46:22.186Z,15.28
2019-05-02T13:48:54.894Z,15.17
2019-05-02T13:51:26.348Z,15.15
2019-05-02T13:54:02.333Z,15.11
2019-05-02T13:56:52.823Z,14.93
2019-05-02T13:59:28.045Z,15.06
2019-05-02T14:02:02.772Z,14.91
2019-05-02T14:04:35.751Z,14.68
2019-05-02T14:07:07.626Z,14.56
2019-05-02T14:09:57.962Z,14.74
2019-05-02T14:12:58.419Z,14.62
2019-05-02T14:15:35.090Z,14.67
2019-05-02T14:18:06.256Z,14.35
2019-05-02T14:20:38.450Z,14.44
2019-05-02T14:23:12.054Z,14.25
2019-05-02T14:25:43.058Z,14.04
2019-05-02T14:28:14.127Z,14.17
2019-05-02T14:30:46.350Z,14.16
2019-05-02T14:33:23.262Z,14.05
2019-05-02T14:35:55.480Z,13.93
2019-05-02T14:38:26.671Z,13.87
2019-05-02T14:41:12.427Z,13.87
2019-05-02T14:43:53.091Z,13.73
2019-05-02T14:46:33.227Z,13.76
2019-05-02T14:49:02.531Z,13.63
2019-05-02T14:51:36.456Z,13.67
2019-05-02T14:54:08.339Z,13.64
2019-05-02T14:56:52.135Z,13.54
2019-05-02T14:59:24.846Z,13.55
2019-05-02T15:02:05.670Z,13.44
2019-05-02T15:04:38.085Z,13.54
2019-05-02T15:07:12.939Z,13.44
2019-05-02T15:09:44.603Z,13.51
2019-05-02T15:12:18.993Z,13.43
2019-05-02T15:14:57.366Z,13.35
2019-05-02T15:17:28.100Z,13.50
2019-05-02T15:19:59.309Z,13.49
2019-05-02T15:22:37.338Z,13.32
2019-05-02T15:25:08.023Z,13.21
2019-05-02T15:27:42.511Z,13.35
2019-05-02T15:30:12.881Z,13.42
2019-05-02T15:32:58.248Z,13.33
2019-05-02T15:35:42.453Z,13.38
2019-05-02T15:38:20.863Z,13.50
2019-05-02T15:40:50.681Z,13.51
2019-05-02T15:43:22.320Z,13.48
2019-05-02T15:45:54.869Z,13.66
2019-05-02T15:48:27.747Z,13.86
2019-05-02T15:51:00.113Z,13.78
2019-05-02T15:53:39.146Z,13.88
2019-05-02T15:56:18.714Z,13.70
2019-05-02T15:58:44.611Z,13.73
2019-05-02T16:01:26.757Z,13.70
2019-05-02T16:04:01.619Z,13.48
2019-05-02T16:06:34.013Z,13.47
2019-05-02T16:09:07.593Z,13.34
2019-05-02T16:11:39.931Z,13.37
2019-05-02T16:14:12.812Z,13.35
2019-05-02T16:16:45.406Z,13.28
2019-05-02T16:19:27.149Z,13.36
2019-05-02T16:21:59.500Z,13.28
2019-05-02T16:24:32.098Z,13.42
2019-05-02T16:27:04.421Z,13.54
2019-05-02T16:29:35.560Z,13.52
2019-05-02T16:32:37.851Z,13.38
2019-05-02T16:35:15.283Z,13.63
2019-05-02T16:37:46.736Z,13.62
2019-05-02T16:40:22.134Z,13.38
2019-05-02T16:42:52.769Z,13.56
2019-05-02T16:45:25.337Z,13.55
2019-05-02T16:48:00.142Z,13.41
2019-05-02T16:50:36.538Z,13.34
2019-05-02T16:53:07.253Z,13.54
2019-05-02T16:55:43.437Z,13.34
2019-05-02T16:58:14.693Z,13.49
2019-05-02T17:00:47.685Z,13.25
2019-05-02T17:03:22.711Z,13.42
2019-05-02T17:05:54.405Z,13.30
2019-05-02T17:08:39.599Z,13.33
2019-05-02T17:11:16.110Z,13.16
2019-05-02T17:13:48.580Z,13.05
2019-05-02T17:16:22.139Z,13.17
2019-05-02T17:18:56.515Z,13.16
2019-05-02T17:21:33.677Z,13.14
2019-05-02T17:24:02.604Z,13.29
2019-05-02T17:26:34.569Z,13.25
2019-05-02T17:29:11.937Z,13.23
2019-05-02T17:31:44.111Z,13.08
2019-05-02T17:34:15.762Z,13.19
2019-05-02T17:36:51.859Z,13.16
2019-05-02T17:39:25.436Z,13.27
2019-05-02T17:42:00.243Z,13.16
2019-05-02T17:44:30.882Z,13.09
2019-05-02T17:47:04.238Z,13.18
2019-05-02T17:49:43.411Z,13.14
2019-05-02T17:52:26.838Z,13.07
2019-05-02T17:54:57.490Z,13.11
2019-05-02T17:57:33.467Z,13.16
2019-05-02T18:00:12.224Z,12.98
2019-05-02T18:02:47.047Z,12.87
2019-05-02T18:05:18.608Z,12.87
2019-05-02T18:07:52.652Z,12.67
2019-05-02T18:10:25.576Z,12.61
2019-05-02T18:13:02.521Z,12.75
2019-05-02T18:15:42.634Z,12.83
2019-05-02T18:18:16.401Z,12.59
2019-05-02T18:20:47.979Z,12.62
2019-05-02T18:23:27.721Z,12.64
2019-05-02T18:26:02.778Z,12.54
2019-05-02T18:28:45.544Z,12.61
2019-05-02T18:31:06.971Z,12.44
2019-05-02T18:33:41.009Z,12.32
2019-05-02T18:36:17.361Z,12.33
2019-05-02T18:38:52.445Z,12.30
2019-05-02T18:41:22.402Z,12.25
2019-05-02T18:43:55.246Z,12.45
2019-05-02T18:46:28.605Z,12.28
2019-05-02T18:49:02.762Z,12.34
2019-05-02T18:51:36.873Z,12.26
2019-05-02T18:54:12.008Z,12.39
2019-05-02T18:56:50.101Z,12.26
2019-05-02T18:59:19.806Z,12.24
2019-05-02T19:01:52.680Z,11.94
2019-05-02T19:04:29.831Z,11.82
2019-05-02T19:07:00.531Z,11.69
2019-05-02T19:09:34.806Z,11.53
2019-05-02T19:12:21.419Z,11.58
2019-05-02T19:14:49.268Z,11.59
2019-05-02T19:17:25.310Z,11.47
2019-05-02T19:20:01.402Z,11.44
2019-05-02T19:22:47.944Z,11.43
2019-05-02T19:25:12.086Z,11.37
2019-05-02T19:27:59.425Z,11.38
2019-05-02T19:30:36.096Z,11.42
2019-05-02T19:33:12.117Z,11.28
2019-05-02T19:35:50.086Z,11.34
2019-05-02T19:38:26.395Z,11.36
2019-05-02T19:41:05.499Z,11.17
2019-05-02T19:43:40.266Z,11.22
2019-05-02T19:46:12.863Z,11.23
2019-05-02T19:48:47.136Z,11.09
2019-05-02T19:51:22.584Z,10.99
2019-05-02T19:54:05.473Z,10.92
2019-05-02T19:56:45.438Z,10.85
2019-05-02T19:59:16.739Z,10.91
2019-05-02T20:01:52.299Z,10.82
2019-05-02T20:04:29.582Z,10.89
2019-05-02T20:07:04.434Z,10.75
2019-05-02T20:09:43.584Z,10.93
2019-05-02T20:12:18.175Z,10.81
2019-05-02T20:14:52.660Z,10.92
2019-05-02T20:17:27.932Z,10.94
2019-05-02T20:20:07.093Z,10.74
2019-05-02T20:22:41.710Z,10.73
2019-05-02T20:25:18.008Z,10.77
2019-05-02T20:27:53.831Z,10.79
2019-05-02T20:30:32.716Z,10.90
2019-05-02T20:33:07.120Z,10.85
2019-05-02T20:35:43.289Z,10.80
2019-05-02T20:38:21.733Z,10.63
2019-05-02T20:41:00.431Z,10.52
2019-05-02T20:43:35.920Z,10.38
2019-05-02T20:46:12.143Z,10.27
2019-05-02T20:48:48.509Z,10.20
2019-05-02T20:51:22.864Z,10.13
2019-05-02T20:53:56.963Z,10.04
2019-05-02T20:56:32.091Z,9.98
2019-05-02T20:59:07.716Z,9.88
2019-05-02T21:01:43.058Z,9.85
2019-05-02T21:04:17.090Z,9.71
2019-05-02T21:07:09.718Z,9.72
2019-05-02T21:10:03.857Z,9.52
2019-05-02T21:12:38.189Z,9.50
2019-05-02T21:15:18.216Z,9.43
2019-05-02T21:17:52.155Z,9.54
2019-05-02T21:20:26.283Z,9.31
2019-05-02T21:23:01.975Z,9.31
2019-05-02T21:25:36.014Z,9.25
2019-05-02T21:28:12.001Z,9.29
2019-05-02T21:30:49.332Z,9.28
2019-05-02T21:33:36.326Z,9.12
2019-05-02T21:36:12.040Z,9.06
2019-05-02T21:38:46.298Z,8.90
2019-05-02T21:41:22.240Z,8.86
2019-05-02T21:43:58.590Z,8.85
2019-05-02T21:46:32.403Z,8.73
2019-05-02T21:49:08.975Z,8.49
2019-05-02T21:51:51.794Z,8.48
2019-05-02T21:54:33.724Z,8.45
2019-05-02T21:57:12.490Z,8.35
2019-05-02T21:59:46.691Z,8.32
2019-05-02T22:02:22.460Z,8.07
2019-05-02T22:04:58.193Z,8.00
2019-05-02T22:07:32.378Z,7.94
2019-05-02T22:10:08.481Z,7.99
2019-05-02T22:12:42.326Z,8.01
2019-05-02T22:15:18.366Z,7.89
2019-05-02T22:17:52.312Z,7.90
2019-05-02T22:20:28.030Z,7.77
2019-05-02T22:23:02.404Z,7.82
2019-05-02T22:25:36.157Z,7.87
2019-05-02T22:28:12.578Z,8.00
2019-05-02T22:30:47.765Z,7.97
2019-05-02T22:33:22.181Z,8.03
2019-05-02T22:35:56.668Z,8.17
2019-05-02T22:39:05.426Z,8.26
2019-05-02T22:41:39.346Z,8.51
2019-05-02T22:44:14.192Z,8.58
2019-05-02T22:46:47.757Z,8.47
2019-05-02T22:49:23.638Z,8.39
2019-05-02T22:51:57.318Z,8.52
2019-05-02T22:54:34.078Z,8.38
2019-05-02T22:57:08.929Z,8.34
2019-05-02T22:59:42.547Z,8.31
2019-05-02T23:02:17.995Z,8.30
2019-05-02T23:04:52.692Z,8.47
2019-05-02T23:07:27.845Z,8.32
2019-05-02T23:10:02.168Z,8.30
2019-05-02T23:12:37.239Z,8.42
2019-05-02T23:15:12.561Z,8.46
2019-05-02T23:17:54.060Z,8.33
2019-05-02T23:20:27.733Z,8.43
2019-05-02T23:23:01.908Z,8.43
2019-05-02T23:26:05.798Z,8.42
2019-05-02T23:28:42.308Z,8.48
2019-05-02T23:31:16.325Z,8.50
2019-05-02T23:33:59.128Z,8.48
2019-05-02T23:36:33.781Z,8.48
2019-05-02T23:39:12.470Z,8.38
2019-05-02T23:41:48.061Z,8.56
2019-05-02T23:44:22.840Z,8.48
2019-05-02T23:46:56.771Z,8.43
2019-05-02T23:49:32.352Z,8.42
2019-05-02T23:52:07.254Z,8.55
2019-05-02T23:54:49.998Z,8.50
2019-05-02T23:57:19.067Z,8.43
2019-05-02T23:59:52.871Z,8.49
